Hayes Center, NE

8:54 PM CDT on May 22, 2015 (GMT -0500)
HAYES CENTER | | Change Station
CLOSE
Current Station
Personal Weather Station
Location: HAYES CENTER, NE
Elevation: 3035 ft
Nearby Weather Stations

Elev 3035 ft 40.49 °N, 101.04 °W | Updated 4 minutes ago

Overcast
Overcast
49.3 °F
Feels Like 45 °F
N
12.0
Wind Variable Wind from ESE
Gusts 18.0 mph

Today
High -- | Low -- °F
--% Chance of Precip.
Yesterday
High -- | Low -- °F
Precip. -- in
6:21 AM 9:00 PM
Waxing Crescent, 25% visible
Pressure 30.05 in
Visibility 8.0 miles
Clouds Overcast 600 ft
Windchill 45 °F
Dew Point 49 °F
Humidity 97%
Rainfall 0.51 in
Snow Depth Not available.
UV 0 out of 12
Pollen 4.30 out of 12
Air Quality Not available.
Flu Activity No Activity
METAR KIML 230053Z AUTO 11014KT 8SM -RA OVC006 09/08 A3003 RMK AO2 RAB2354E10B31 SLP174 P0001 T00940083

More Conditions Fewer Conditions

Pressure 30.05 in
Visibility 8.0 miles
Clouds Overcast 600 ft
Windchill 45 °F
Dew Point 49 °F
Humidity 97%
Rainfall 0.51 in
Snow Depth Not available.
UV 0 out of 12
Pollen 4.30 out of 12
Air Quality Not available.
Flu Activity No Activity
METAR KIML 230053Z AUTO 11014KT 8SM -RA OVC006 09/08 A3003 RMK AO2 RAB2354E10B31 SLP174 P0001 T00940083

More Conditions Fewer Conditions

10-Day Weather Forecast

Almanac

Astronomy

May. 22, 2015 Rise Set
Actual Time
Civil Twilight
Nautical Twilight
Astronomical Twilight
Moon
Length of Visible Light
Length of Day
Tomorrow will be .
, % of the Moon is Illuminated

Today's Extremes

State Highs State Lows

Community

WunderPhotos

Upload Photos

1,823,360 photos uploaded!

WunderBlogs® & News

Nearby

Air Quality

  Air Quality AQ Index Pollutant
Not available.

Snow Depth

Station Depth Elevation

Earthquake Activity

City Distance Mag. Time & Date
Minimum magnitude displayed is 2.5.

Coastal Water Temperatures

Place Temperature

Stations

Nearby Weather Stations

Station Location Temp. Windchill Dew Point Humidity Wind Precip. Elev Updated Type